sensor_id;sensor_type;location;lat;lon;timestamp;temperature;humidity
65034;DHT22;51601;51.356;12.458;2024-02-16T00:03:16;9.70;99.90
65034;DHT22;51601;51.356;12.458;2024-02-16T00:07:34;9.70;99.90
65034;DHT22;51601;51.356;12.458;2024-02-16T00:11:52;9.80;99.90
65034;DHT22;51601;51.356;12.458;2024-02-16T00:16:11;9.80;99.90
65034;DHT22;51601;51.356;12.458;2024-02-16T00:20:28;9.80;99.90
65034;DHT22;51601;51.356;12.458;2024-02-16T00:24:49;9.80;99.90
65034;DHT22;51601;51.356;12.458;2024-02-16T00:29:07;9.90;99.90
65034;DHT22;51601;51.356;12.458;2024-02-16T00:33:27;9.90;99.90
65034;DHT22;51601;51.356;12.458;2024-02-16T00:37:46;9.90;99.90
65034;DHT22;51601;51.356;12.458;2024-02-16T00:42:05;10.00;99.90
65034;DHT22;51601;51.356;12.458;2024-02-16T00:46:22;10.00;99.90
65034;DHT22;51601;51.356;12.458;2024-02-16T00:50:42;10.00;99.90
65034;DHT22;51601;51.356;12.458;2024-02-16T00:55:02;9.90;99.90
65034;DHT22;51601;51.356;12.458;2024-02-16T00:59:20;9.90;99.90
65034;DHT22;51601;51.356;12.458;2024-02-16T01:03:38;9.90;99.90
65034;DHT22;51601;51.356;12.458;2024-02-16T01:07:57;9.80;99.90
65034;DHT22;51601;51.356;12.458;2024-02-16T01:12:14;9.80;99.90
65034;DHT22;51601;51.356;12.458;2024-02-16T01:16:32;9.70;99.90
65034;DHT22;51601;51.356;12.458;2024-02-16T01:20:50;9.70;99.90
65034;DHT22;51601;51.356;12.458;2024-02-16T01:25:09;9.60;99.90
65034;DHT22;51601;51.356;12.458;2024-02-16T01:29:29;9.60;99.90
65034;DHT22;51601;51.356;12.458;2024-02-16T01:33:50;9.60;99.90
65034;DHT22;51601;51.356;12.458;2024-02-16T01:38:08;9.50;99.90
65034;DHT22;51601;51.356;12.458;2024-02-16T01:42:28;9.60;99.90
65034;DHT22;51601;51.356;12.458;2024-02-16T01:46:44;9.50;99.90
65034;DHT22;51601;51.356;12.458;2024-02-16T01:51:04;9.50;99.90
65034;DHT22;51601;51.356;12.458;2024-02-16T01:55:24;9.50;99.90
65034;DHT22;51601;51.356;12.458;2024-02-16T01:59:46;9.40;99.90
65034;DHT22;51601;51.356;12.458;2024-02-16T02:04:06;9.40;99.90
65034;DHT22;51601;51.356;12.458;2024-02-16T02:08:25;9.40;99.90
65034;DHT22;51601;51.356;12.458;2024-02-16T02:12:42;9.40;99.90
65034;DHT22;51601;51.356;12.458;2024-02-16T02:17:01;9.30;99.90
65034;DHT22;51601;51.356;12.458;2024-02-16T02:21:21;9.40;99.90
65034;DHT22;51601;51.356;12.458;2024-02-16T02:25:41;9.30;99.90
65034;DHT22;51601;51.356;12.458;2024-02-16T02:29:57;9.30;99.90
65034;DHT22;51601;51.356;12.458;2024-02-16T02:34:15;9.40;99.90
65034;DHT22;51601;51.356;12.458;2024-02-16T02:38:33;9.40;99.90
65034;DHT22;51601;51.356;12.458;2024-02-16T02:42:53;9.40;99.90
65034;DHT22;51601;51.356;12.458;2024-02-16T02:47:10;9.50;99.90
65034;DHT22;51601;51.356;12.458;2024-02-16T02:51:27;9.50;99.90
65034;DHT22;51601;51.356;12.458;2024-02-16T02:55:46;9.60;99.90
65034;DHT22;51601;51.356;12.458;2024-02-16T03:00:07;9.60;99.90
65034;DHT22;51601;51.356;12.458;2024-02-16T03:04:28;9.60;99.90
65034;DHT22;51601;51.356;12.458;2024-02-16T03:08:46;9.60;99.90
65034;DHT22;51601;51.356;12.458;2024-02-16T03:13:04;9.60;99.90
65034;DHT22;51601;51.356;12.458;2024-02-16T03:17:23;9.60;99.90
65034;DHT22;51601;51.356;12.458;2024-02-16T03:21:40;9.60;99.90
65034;DHT22;51601;51.356;12.458;2024-02-16T03:25:58;9.60;99.90
65034;DHT22;51601;51.356;12.458;2024-02-16T03:30:16;9.60;99.90
65034;DHT22;51601;51.356;12.458;2024-02-16T03:34:36;9.60;99.90
65034;DHT22;51601;51.356;12.458;2024-02-16T03:38:56;9.60;99.90
65034;DHT22;51601;51.356;12.458;2024-02-16T03:43:17;9.50;99.90
65034;DHT22;51601;51.356;12.458;2024-02-16T03:47:34;9.60;99.90
65034;DHT22;51601;51.356;12.458;2024-02-16T03:51:54;9.50;99.90
65034;DHT22;51601;51.356;12.458;2024-02-16T03:56:18;9.60;99.90
65034;DHT22;51601;51.356;12.458;2024-02-16T04:00:38;9.60;99.90
65034;DHT22;51601;51.356;12.458;2024-02-16T04:04:56;9.60;99.90
65034;DHT22;51601;51.356;12.458;2024-02-16T04:09:15;9.70;99.90
65034;DHT22;51601;51.356;12.458;2024-02-16T04:13:35;9.70;99.90
65034;DHT22;51601;51.356;12.458;2024-02-16T04:17:53;9.80;99.90
65034;DHT22;51601;51.356;12.458;2024-02-16T04:22:11;9.80;99.90
65034;DHT22;51601;51.356;12.458;2024-02-16T04:26:31;9.80;99.90
65034;DHT22;51601;51.356;12.458;2024-02-16T04:30:51;9.80;99.90
65034;DHT22;51601;51.356;12.458;2024-02-16T04:35:09;9.80;99.90
65034;DHT22;51601;51.356;12.458;2024-02-16T04:39:30;9.80;99.90
65034;DHT22;51601;51.356;12.458;2024-02-16T04:43:50;9.70;99.90
65034;DHT22;51601;51.356;12.458;2024-02-16T04:48:09;9.70;99.90
65034;DHT22;51601;51.356;12.458;2024-02-16T04:52:27;9.70;99.90
65034;DHT22;51601;51.356;12.458;2024-02-16T04:56:48;9.70;99.90
65034;DHT22;51601;51.356;12.458;2024-02-16T05:01:07;9.70;99.90
65034;DHT22;51601;51.356;12.458;2024-02-16T05:05:27;9.70;99.90
65034;DHT22;51601;51.356;12.458;2024-02-16T05:09:45;9.70;99.90
65034;DHT22;51601;51.356;12.458;2024-02-16T05:14:03;9.80;99.90
65034;DHT22;51601;51.356;12.458;2024-02-16T05:18:23;9.80;99.90
65034;DHT22;51601;51.356;12.458;2024-02-16T05:22:43;9.80;99.90
65034;DHT22;51601;51.356;12.458;2024-02-16T05:27:04;9.80;99.90
65034;DHT22;51601;51.356;12.458;2024-02-16T05:31:22;9.70;99.90
65034;DHT22;51601;51.356;12.458;2024-02-16T05:35:41;9.70;99.90
65034;DHT22;51601;51.356;12.458;2024-02-16T05:40:01;9.70;99.90
65034;DHT22;51601;51.356;12.458;2024-02-16T05:44:34;9.70;99.90
65034;DHT22;51601;51.356;12.458;2024-02-16T05:48:52;9.80;99.90
65034;DHT22;51601;51.356;12.458;2024-02-16T05:53:12;9.90;99.90
65034;DHT22;51601;51.356;12.458;2024-02-16T05:57:29;9.90;99.90
65034;DHT22;51601;51.356;12.458;2024-02-16T06:01:46;10.00;99.90
65034;DHT22;51601;51.356;12.458;2024-02-16T06:06:05;10.10;99.90
65034;DHT22;51601;51.356;12.458;2024-02-16T06:10:27;10.10;99.90
65034;DHT22;51601;51.356;12.458;2024-02-16T06:14:44;10.10;99.90
65034;DHT22;51601;51.356;12.458;2024-02-16T06:19:02;10.20;99.90
65034;DHT22;51601;51.356;12.458;2024-02-16T06:23:20;10.30;99.90
65034;DHT22;51601;51.356;12.458;2024-02-16T06:27:39;10.30;99.90
65034;DHT22;51601;51.356;12.458;2024-02-16T06:31:59;10.40;99.90
65034;DHT22;51601;51.356;12.458;2024-02-16T06:36:20;10.50;99.90
65034;DHT22;51601;51.356;12.458;2024-02-16T06:40:41;10.60;99.90
65034;DHT22;51601;51.356;12.458;2024-02-16T06:45:01;10.70;99.90
65034;DHT22;51601;51.356;12.458;2024-02-16T06:49:21;10.70;99.90
65034;DHT22;51601;51.356;12.458;2024-02-16T06:53:38;10.70;99.90
65034;DHT22;51601;51.356;12.458;2024-02-16T06:57:57;10.70;99.90
65034;DHT22;51601;51.356;12.458;2024-02-16T07:02:16;10.70;99.90
65034;DHT22;51601;51.356;12.458;2024-02-16T07:06:36;10.70;99.90
65034;DHT22;51601;51.356;12.458;2024-02-16T07:10:54;10.80;99.90
65034;DHT22;51601;51.356;12.458;2024-02-16T07:15:12;10.90;99.60
65034;DHT22;51601;51.356;12.458;2024-02-16T07:19:31;10.90;99.20
65034;DHT22;51601;51.356;12.458;2024-02-16T07:23:48;11.00;98.80
65034;DHT22;51601;51.356;12.458;2024-02-16T07:28:06;11.10;98.60
65034;DHT22;51601;51.356;12.458;2024-02-16T07:32:24;11.20;98.10
65034;DHT22;51601;51.356;12.458;2024-02-16T07:36:43;11.30;97.20
65034;DHT22;51601;51.356;12.458;2024-02-16T07:41:00;11.40;96.10
65034;DHT22;51601;51.356;12.458;2024-02-16T07:45:22;11.60;95.50
65034;DHT22;51601;51.356;12.458;2024-02-16T07:49:39;11.80;94.50
65034;DHT22;51601;51.356;12.458;2024-02-16T07:53:59;12.00;94.20
65034;DHT22;51601;51.356;12.458;2024-02-16T07:58:18;12.50;93.20
65034;DHT22;51601;51.356;12.458;2024-02-16T08:02:37;13.10;89.10
65034;DHT22;51601;51.356;12.458;2024-02-16T08:06:55;13.30;84.00
65034;DHT22;51601;51.356;12.458;2024-02-16T08:11:14;13.40;82.20
65034;DHT22;51601;51.356;12.458;2024-02-16T08:15:34;13.60;82.00
65034;DHT22;51601;51.356;12.458;2024-02-16T08:19:53;13.90;79.90
65034;DHT22;51601;51.356;12.458;2024-02-16T08:24:10;14.20;78.40
65034;DHT22;51601;51.356;12.458;2024-02-16T08:28:29;14.70;77.40
65034;DHT22;51601;51.356;12.458;2024-02-16T08:32:49;15.20;74.50
65034;DHT22;51601;51.356;12.458;2024-02-16T08:37:07;15.90;74.30
65034;DHT22;51601;51.356;12.458;2024-02-16T08:41:25;16.40;70.50
65034;DHT22;51601;51.356;12.458;2024-02-16T08:45:45;16.40;68.50
65034;DHT22;51601;51.356;12.458;2024-02-16T08:50:05;16.10;68.10
65034;DHT22;51601;51.356;12.458;2024-02-16T08:54:26;16.00;70.10
65034;DHT22;51601;51.356;12.458;2024-02-16T08:58:44;16.40;69.20
65034;DHT22;51601;51.356;12.458;2024-02-16T09:03:04;16.70;67.00
65034;DHT22;51601;51.356;12.458;2024-02-16T09:07:23;16.60;66.40
65034;DHT22;51601;51.356;12.458;2024-02-16T09:11:41;16.60;66.90
65034;DHT22;51601;51.356;12.458;2024-02-16T09:16:00;16.70;66.00
65034;DHT22;51601;51.356;12.458;2024-02-16T09:20:19;16.50;66.00
65034;DHT22;51601;51.356;12.458;2024-02-16T09:24:39;16.20;66.20
65034;DHT22;51601;51.356;12.458;2024-02-16T09:28:59;15.90;66.60
65034;DHT22;51601;51.356;12.458;2024-02-16T09:33:17;15.70;67.10
65034;DHT22;51601;51.356;12.458;2024-02-16T09:37:38;15.50;68.50
65034;DHT22;51601;51.356;12.458;2024-02-16T09:41:57;15.30;68.90
65034;DHT22;51601;51.356;12.458;2024-02-16T09:46:15;15.20;68.50
65034;DHT22;51601;51.356;12.458;2024-02-16T09:50:36;15.10;69.10
65034;DHT22;51601;51.356;12.458;2024-02-16T09:54:55;15.00;69.30
65034;DHT22;51601;51.356;12.458;2024-02-16T09:59:15;15.00;69.80
65034;DHT22;51601;51.356;12.458;2024-02-16T10:03:33;15.10;70.10
65034;DHT22;51601;51.356;12.458;2024-02-16T10:07:51;15.30;70.10
65034;DHT22;51601;51.356;12.458;2024-02-16T10:12:18;15.60;68.90
65034;DHT22;51601;51.356;12.458;2024-02-16T10:16:36;15.80;68.30
65034;DHT22;51601;51.356;12.458;2024-02-16T10:20:54;16.10;68.00
65034;DHT22;51601;51.356;12.458;2024-02-16T10:25:13;16.50;65.90
65034;DHT22;51601;51.356;12.458;2024-02-16T10:29:32;16.70;64.90
65034;DHT22;51601;51.356;12.458;2024-02-16T10:33:52;16.90;64.00
65034;DHT22;51601;51.356;12.458;2024-02-16T10:38:10;17.00;63.60
65034;DHT22;51601;51.356;12.458;2024-02-16T10:42:28;17.10;64.20
65034;DHT22;51601;51.356;12.458;2024-02-16T10:46:47;17.20;64.20
65034;DHT22;51601;51.356;12.458;2024-02-16T10:51:08;17.40;63.80
65034;DHT22;51601;51.356;12.458;2024-02-16T10:55:28;17.60;63.20
65034;DHT22;51601;51.356;12.458;2024-02-16T10:59:46;17.80;63.00
65034;DHT22;51601;51.356;12.458;2024-02-16T11:04:15;18.00;62.40
65034;DHT22;51601;51.356;12.458;2024-02-16T11:08:38;18.20;62.20
65034;DHT22;51601;51.356;12.458;2024-02-16T11:13:01;18.30;61.90
65034;DHT22;51601;51.356;12.458;2024-02-16T11:17:21;18.30;60.00
65034;DHT22;51601;51.356;12.458;2024-02-16T11:21:55;18.10;59.80
65034;DHT22;51601;51.356;12.458;2024-02-16T11:26:17;17.70;60.80
65034;DHT22;51601;51.356;12.458;2024-02-16T11:30:39;17.40;61.70
65034;DHT22;51601;51.356;12.458;2024-02-16T11:35:05;17.10;62.50
65034;DHT22;51601;51.356;12.458;2024-02-16T11:39:26;16.90;63.20
65034;DHT22;51601;51.356;12.458;2024-02-16T11:43:45;16.70;63.60
65034;DHT22;51601;51.356;12.458;2024-02-16T11:48:05;16.60;64.10
65034;DHT22;51601;51.356;12.458;2024-02-16T11:52:24;16.50;64.70
65034;DHT22;51601;51.356;12.458;2024-02-16T11:56:44;16.40;65.40
65034;DHT22;51601;51.356;12.458;2024-02-16T12:01:10;16.30;66.10
65034;DHT22;51601;51.356;12.458;2024-02-16T12:05:34;16.10;66.70
65034;DHT22;51601;51.356;12.458;2024-02-16T12:09:56;16.00;67.20
65034;DHT22;51601;51.356;12.458;2024-02-16T12:14:15;16.00;67.70
65034;DHT22;51601;51.356;12.458;2024-02-16T12:18:34;16.00;67.70
65034;DHT22;51601;51.356;12.458;2024-02-16T12:22:52;16.20;67.90
65034;DHT22;51601;51.356;12.458;2024-02-16T12:27:10;16.40;67.70
65034;DHT22;51601;51.356;12.458;2024-02-16T12:31:30;16.70;67.00
65034;DHT22;51601;51.356;12.458;2024-02-16T12:35:49;16.90;65.70
65034;DHT22;51601;51.356;12.458;2024-02-16T12:40:08;17.10;65.00
65034;DHT22;51601;51.356;12.458;2024-02-16T12:44:26;17.20;64.70
65034;DHT22;51601;51.356;12.458;2024-02-16T12:48:45;17.30;64.30
65034;DHT22;51601;51.356;12.458;2024-02-16T12:53:06;17.40;63.90
65034;DHT22;51601;51.356;12.458;2024-02-16T12:57:26;17.40;64.00
65034;DHT22;51601;51.356;12.458;2024-02-16T13:01:47;17.50;64.10
65034;DHT22;51601;51.356;12.458;2024-02-16T13:06:06;17.70;63.70
65034;DHT22;51601;51.356;12.458;2024-02-16T13:10:26;17.80;63.40
65034;DHT22;51601;51.356;12.458;2024-02-16T13:14:44;17.90;62.60
65034;DHT22;51601;51.356;12.458;2024-02-16T13:19:02;17.90;62.20
65034;DHT22;51601;51.356;12.458;2024-02-16T13:23:25;17.90;62.10
65034;DHT22;51601;51.356;12.458;2024-02-16T13:27:44;17.90;61.80
65034;DHT22;51601;51.356;12.458;2024-02-16T13:32:03;17.90;62.10
65034;DHT22;51601;51.356;12.458;2024-02-16T13:36:21;17.80;62.00
65034;DHT22;51601;51.356;12.458;2024-02-16T13:40:41;17.80;61.90
65034;DHT22;51601;51.356;12.458;2024-02-16T13:45:00;17.70;61.80
65034;DHT22;51601;51.356;12.458;2024-02-16T13:49:18;17.60;62.10
65034;DHT22;51601;51.356;12.458;2024-02-16T13:53:36;17.50;62.40
65034;DHT22;51601;51.356;12.458;2024-02-16T13:57:56;17.40;62.60
65034;DHT22;51601;51.356;12.458;2024-02-16T14:02:15;17.30;62.80
65034;DHT22;51601;51.356;12.458;2024-02-16T14:06:33;17.30;63.10
65034;DHT22;51601;51.356;12.458;2024-02-16T14:10:51;17.20;63.40
65034;DHT22;51601;51.356;12.458;2024-02-16T14:15:12;17.20;63.60
65034;DHT22;51601;51.356;12.458;2024-02-16T14:19:33;17.10;63.70
65034;DHT22;51601;51.356;12.458;2024-02-16T14:24:04;17.10;64.00
65034;DHT22;51601;51.356;12.458;2024-02-16T14:28:22;17.10;64.20
65034;DHT22;51601;51.356;12.458;2024-02-16T14:32:41;17.10;64.60
65034;DHT22;51601;51.356;12.458;2024-02-16T14:36:58;17.00;64.50
65034;DHT22;51601;51.356;12.458;2024-02-16T14:41:16;17.00;64.80
65034;DHT22;51601;51.356;12.458;2024-02-16T14:45:34;17.00;64.90
65034;DHT22;51601;51.356;12.458;2024-02-16T14:49:57;17.00;64.80
65034;DHT22;51601;51.356;12.458;2024-02-16T14:54:16;17.00;64.90
65034;DHT22;51601;51.356;12.458;2024-02-16T14:58:34;17.00;64.90
65034;DHT22;51601;51.356;12.458;2024-02-16T15:02:55;17.10;65.20
65034;DHT22;51601;51.356;12.458;2024-02-16T15:07:16;17.10;65.10
65034;DHT22;51601;51.356;12.458;2024-02-16T15:11:35;17.10;65.20
65034;DHT22;51601;51.356;12.458;2024-02-16T15:15:56;17.10;65.50
65034;DHT22;51601;51.356;12.458;2024-02-16T15:20:17;17.10;65.90
65034;DHT22;51601;51.356;12.458;2024-02-16T15:24:36;17.10;65.50
65034;DHT22;51601;51.356;12.458;2024-02-16T15:28:59;17.10;65.90
65034;DHT22;51601;51.356;12.458;2024-02-16T15:33:17;17.00;66.30
65034;DHT22;51601;51.356;12.458;2024-02-16T15:37:35;16.90;66.60
65034;DHT22;51601;51.356;12.458;2024-02-16T15:41:57;16.80;67.00
65034;DHT22;51601;51.356;12.458;2024-02-16T15:46:14;16.60;67.40
65034;DHT22;51601;51.356;12.458;2024-02-16T15:50:35;16.50;67.80
65034;DHT22;51601;51.356;12.458;2024-02-16T15:54:53;16.40;68.30
65034;DHT22;51601;51.356;12.458;2024-02-16T15:59:13;16.20;68.70
65034;DHT22;51601;51.356;12.458;2024-02-16T16:03:33;16.10;69.20
65034;DHT22;51601;51.356;12.458;2024-02-16T16:07:51;16.00;69.70
65034;DHT22;51601;51.356;12.458;2024-02-16T16:12:09;15.90;70.20
65034;DHT22;51601;51.356;12.458;2024-02-16T16:16:28;15.70;70.60
65034;DHT22;51601;51.356;12.458;2024-02-16T16:20:48;15.60;71.70
65034;DHT22;51601;51.356;12.458;2024-02-16T16:25:07;15.40;71.40
65034;DHT22;51601;51.356;12.458;2024-02-16T16:29:24;15.30;71.80
65034;DHT22;51601;51.356;12.458;2024-02-16T16:33:44;15.30;72.20
65034;DHT22;51601;51.356;12.458;2024-02-16T16:38:03;15.20;72.60
65034;DHT22;51601;51.356;12.458;2024-02-16T16:42:24;15.20;72.90
65034;DHT22;51601;51.356;12.458;2024-02-16T16:46:42;15.20;72.90
65034;DHT22;51601;51.356;12.458;2024-02-16T16:51:02;15.20;73.00
65034;DHT22;51601;51.356;12.458;2024-02-16T16:55:22;15.20;72.90
65034;DHT22;51601;51.356;12.458;2024-02-16T16:59:40;15.20;72.80
65034;DHT22;51601;51.356;12.458;2024-02-16T17:03:58;15.20;72.70
65034;DHT22;51601;51.356;12.458;2024-02-16T17:08:17;15.20;72.60
65034;DHT22;51601;51.356;12.458;2024-02-16T17:12:34;15.20;72.50
65034;DHT22;51601;51.356;12.458;2024-02-16T17:16:52;15.20;72.40
65034;DHT22;51601;51.356;12.458;2024-02-16T17:21:10;15.20;72.40
65034;DHT22;51601;51.356;12.458;2024-02-16T17:25:29;15.20;72.40
65034;DHT22;51601;51.356;12.458;2024-02-16T17:29:49;15.20;72.40
65034;DHT22;51601;51.356;12.458;2024-02-16T17:34:07;15.20;72.50
65034;DHT22;51601;51.356;12.458;2024-02-16T17:38:25;15.20;72.50
65034;DHT22;51601;51.356;12.458;2024-02-16T17:42:45;15.10;72.60
65034;DHT22;51601;51.356;12.458;2024-02-16T17:47:04;15.10;72.70
65034;DHT22;51601;51.356;12.458;2024-02-16T17:51:23;15.10;72.80
65034;DHT22;51601;51.356;12.458;2024-02-16T17:55:41;15.10;73.00
65034;DHT22;51601;51.356;12.458;2024-02-16T18:00:00;15.00;73.10
65034;DHT22;51601;51.356;12.458;2024-02-16T18:04:23;15.00;73.10
65034;DHT22;51601;51.356;12.458;2024-02-16T18:08:41;15.00;73.30
65034;DHT22;51601;51.356;12.458;2024-02-16T18:12:59;14.90;73.20
65034;DHT22;51601;51.356;12.458;2024-02-16T18:17:18;14.80;73.40
65034;DHT22;51601;51.356;12.458;2024-02-16T18:21:35;14.70;73.60
65034;DHT22;51601;51.356;12.458;2024-02-16T18:25:53;14.70;73.80
65034;DHT22;51601;51.356;12.458;2024-02-16T18:30:12;14.60;74.00
65034;DHT22;51601;51.356;12.458;2024-02-16T18:34:34;14.60;74.30
65034;DHT22;51601;51.356;12.458;2024-02-16T18:38:54;14.60;74.50
65034;DHT22;51601;51.356;12.458;2024-02-16T18:43:12;14.60;74.70
65034;DHT22;51601;51.356;12.458;2024-02-16T18:47:31;14.50;75.00
65034;DHT22;51601;51.356;12.458;2024-02-16T18:51:52;14.50;75.00
65034;DHT22;51601;51.356;12.458;2024-02-16T18:56:09;14.50;75.40
65034;DHT22;51601;51.356;12.458;2024-02-16T19:00:27;14.50;75.70
65034;DHT22;51601;51.356;12.458;2024-02-16T19:04:45;14.50;75.90
65034;DHT22;51601;51.356;12.458;2024-02-16T19:09:04;14.50;76.10
65034;DHT22;51601;51.356;12.458;2024-02-16T19:13:21;14.50;76.30
65034;DHT22;51601;51.356;12.458;2024-02-16T19:17:39;14.60;76.60
65034;DHT22;51601;51.356;12.458;2024-02-16T19:21:57;14.50;76.80
65034;DHT22;51601;51.356;12.458;2024-02-16T19:26:16;14.50;77.20
65034;DHT22;51601;51.356;12.458;2024-02-16T19:30:33;14.60;77.80
65034;DHT22;51601;51.356;12.458;2024-02-16T19:34:54;14.60;78.60
65034;DHT22;51601;51.356;12.458;2024-02-16T19:39:12;14.60;79.60
65034;DHT22;51601;51.356;12.458;2024-02-16T19:43:36;14.50;80.70
65034;DHT22;51601;51.356;12.458;2024-02-16T19:47:53;14.50;82.70
65034;DHT22;51601;51.356;12.458;2024-02-16T19:52:11;14.40;82.90
65034;DHT22;51601;51.356;12.458;2024-02-16T19:56:29;14.40;83.90
65034;DHT22;51601;51.356;12.458;2024-02-16T20:00:48;14.40;84.80
65034;DHT22;51601;51.356;12.458;2024-02-16T20:05:08;14.40;85.80
65034;DHT22;51601;51.356;12.458;2024-02-16T20:09:26;14.30;87.50
65034;DHT22;51601;51.356;12.458;2024-02-16T20:13:44;14.30;87.60
65034;DHT22;51601;51.356;12.458;2024-02-16T20:18:07;14.30;88.30
65034;DHT22;51601;51.356;12.458;2024-02-16T20:22:30;14.30;88.90
65034;DHT22;51601;51.356;12.458;2024-02-16T20:26:48;14.20;89.30
65034;DHT22;51601;51.356;12.458;2024-02-16T20:31:06;14.20;89.70
65034;DHT22;51601;51.356;12.458;2024-02-16T20:35:29;14.20;90.10
65034;DHT22;51601;51.356;12.458;2024-02-16T20:39:48;14.10;90.60
65034;DHT22;51601;51.356;12.458;2024-02-16T20:44:12;14.10;91.40
65034;DHT22;51601;51.356;12.458;2024-02-16T20:48:30;14.00;92.20
65034;DHT22;51601;51.356;12.458;2024-02-16T20:52:55;14.00;93.70
65034;DHT22;51601;51.356;12.458;2024-02-16T20:57:13;13.90;95.10
65034;DHT22;51601;51.356;12.458;2024-02-16T21:01:32;13.80;96.40
65034;DHT22;51601;51.356;12.458;2024-02-16T21:05:53;13.80;97.60
65034;DHT22;51601;51.356;12.458;2024-02-16T21:10:12;13.70;98.70
65034;DHT22;51601;51.356;12.458;2024-02-16T21:14:33;13.70;99.70
65034;DHT22;51601;51.356;12.458;2024-02-16T21:19:11;13.60;99.90
65034;DHT22;51601;51.356;12.458;2024-02-16T21:23:45;13.50;99.90
65034;DHT22;51601;51.356;12.458;2024-02-16T21:28:08;13.50;99.90
65034;DHT22;51601;51.356;12.458;2024-02-16T21:32:31;13.40;99.90
65034;DHT22;51601;51.356;12.458;2024-02-16T21:36:53;13.30;99.90
65034;DHT22;51601;51.356;12.458;2024-02-16T21:41:18;13.30;99.90
65034;DHT22;51601;51.356;12.458;2024-02-16T21:45:43;13.30;99.90
65034;DHT22;51601;51.356;12.458;2024-02-16T21:50:07;13.20;99.90
65034;DHT22;51601;51.356;12.458;2024-02-16T21:54:30;13.20;99.90
65034;DHT22;51601;51.356;12.458;2024-02-16T21:58:52;13.20;99.90
65034;DHT22;51601;51.356;12.458;2024-02-16T22:03:26;13.20;99.90
65034;DHT22;51601;51.356;12.458;2024-02-16T22:07:47;13.10;99.90
65034;DHT22;51601;51.356;12.458;2024-02-16T22:12:07;13.10;99.90
65034;DHT22;51601;51.356;12.458;2024-02-16T22:16:33;13.00;99.90
65034;DHT22;51601;51.356;12.458;2024-02-16T22:21:09;13.00;99.90
65034;DHT22;51601;51.356;12.458;2024-02-16T22:25:50;13.00;99.90
65034;DHT22;51601;51.356;12.458;2024-02-16T22:30:15;13.00;99.90
65034;DHT22;51601;51.356;12.458;2024-02-16T22:34:33;13.00;99.90
65034;DHT22;51601;51.356;12.458;2024-02-16T22:38:52;12.90;99.90
65034;DHT22;51601;51.356;12.458;2024-02-16T22:43:09;12.90;99.90
65034;DHT22;51601;51.356;12.458;2024-02-16T22:47:27;12.90;99.90
65034;DHT22;51601;51.356;12.458;2024-02-16T22:51:45;12.90;99.90
65034;DHT22;51601;51.356;12.458;2024-02-16T22:56:08;12.90;99.90
65034;DHT22;51601;51.356;12.458;2024-02-16T23:00:27;12.80;99.90
65034;DHT22;51601;51.356;12.458;2024-02-16T23:04:48;12.80;99.90
65034;DHT22;51601;51.356;12.458;2024-02-16T23:09:06;12.80;99.90
65034;DHT22;51601;51.356;12.458;2024-02-16T23:13:29;12.70;99.90
65034;DHT22;51601;51.356;12.458;2024-02-16T23:17:49;12.70;99.90
65034;DHT22;51601;51.356;12.458;2024-02-16T23:22:07;12.70;99.90
65034;DHT22;51601;51.356;12.458;2024-02-16T23:26:25;12.60;99.90
65034;DHT22;51601;51.356;12.458;2024-02-16T23:30:44;12.60;99.90
65034;DHT22;51601;51.356;12.458;2024-02-16T23:35:05;12.60;99.90
65034;DHT22;51601;51.356;12.458;2024-02-16T23:39:25;12.50;99.90
65034;DHT22;51601;51.356;12.458;2024-02-16T23:43:43;12.50;99.90
65034;DHT22;51601;51.356;12.458;2024-02-16T23:48:03;12.40;99.90
65034;DHT22;51601;51.356;12.458;2024-02-16T23:52:22;12.40;99.90
65034;DHT22;51601;51.356;12.458;2024-02-16T23:56:40;12.40;99.90
